Time;durP1;ratioP1;P1;durP2;ratioP2;P2;SDS_P1;SDS_P2;PMS_P1;PMS_P2;Temp;Humidity;BMP_temperature;BMP_pressure;BME280_temperature;BME280_humidity;BME280_pressure;Samples;Min_cycle;Max_cycle;Signal;HPM_P1;HPM_P2
2022/11/29 00:02:21;;;;;;;0.50;0.30;;;8.40;99.90;;;;;;6155718;23;20463;-74
2022/11/29 00:04:49;;;;;;;0.93;0.93;;;8.40;99.90;;;;;;6155100;23;20953;-74
2022/11/29 00:07:17;;;;;;;0.50;0.10;;;8.40;99.90;;;;;;6155347;23;20425;-74
2022/11/29 00:09:44;;;;;;;0.50;0.10;;;8.40;99.90;;;;;;6155962;23;20405;-74
2022/11/29 00:12:13;;;;;;;14.00;13.10;;;;;;;;;;6154913;23;20914;-74
2022/11/29 00:14:42;;;;;;;0.50;0.10;;;8.40;99.90;;;;;;6155241;23;20401;-73
2022/11/29 00:17:10;;;;;;;0.50;0.10;;;8.40;99.90;;;;;;6155238;23;20475;-74
2022/11/29 00:19:38;;;;;;;0.50;0.20;;;8.40;99.90;;;;;;6155386;23;20428;-76
2022/11/29 00:22:06;;;;;;;0.50;0.10;;;8.40;99.90;;;;;;6155130;23;20400;-74
2022/11/29 00:24:35;;;;;;;0.50;0.10;;;8.40;99.90;;;;;;6155403;23;20441;-74
2022/11/29 00:27:03;;;;;;;0.60;0.60;;;8.30;99.90;;;;;;6155053;23;20816;-75
2022/11/29 00:29:30;;;;;;;3.03;2.93;;;8.30;99.90;;;;;;6155684;23;20409;-75
2022/11/29 00:32:00;;;;;;;0.50;0.10;;;8.30;99.90;;;;;;6155652;23;20487;-74
2022/11/29 00:34:28;;;;;;;0.50;0.10;;;8.30;99.90;;;;;;6156848;23;20401;-74
2022/11/29 00:36:55;;;;;;;3.70;3.57;;;8.30;99.90;;;;;;6157418;23;20433;-75
2022/11/29 00:39:23;;;;;;;0.50;0.10;;;8.30;99.90;;;;;;6155403;23;20412;-74
2022/11/29 00:41:51;;;;;;;0.50;0.10;;;8.30;99.90;;;;;;6155101;23;20972;-74
2022/11/29 00:44:19;;;;;;;0.50;0.10;;;8.30;99.90;;;;;;6155502;23;20495;-74
2022/11/29 00:46:48;;;;;;;0.50;0.20;;;8.30;99.90;;;;;;6155562;23;20475;-75
2022/11/29 00:49:17;;;;;;;0.50;0.10;;;8.30;99.90;;;;;;6155416;23;20409;-75
2022/11/29 00:51:45;;;;;;;0.50;0.30;;;8.40;99.90;;;;;;6155433;23;20405;-74
2022/11/29 00:54:13;;;;;;;19.20;14.00;;;8.40;99.90;;;;;;6155178;23;20460;-74
2022/11/29 00:56:41;;;;;;;0.50;0.10;;;8.40;99.90;;;;;;6155200;23;20904;-74
2022/11/29 00:59:09;;;;;;;0.50;0.10;;;8.40;99.90;;;;;;6154745;23;20878;-74
2022/11/29 05:01:04;;;;;;;0.50;0.10;;;8.60;99.90;;;;;;6072048;23;20472;-78
2022/11/29 05:03:38;;;;;;;0.50;0.10;;;8.60;99.90;;;;;;6123996;23;20989;-78
2022/11/29 05:06:19;;;;;;;0.50;0.10;;;8.50;99.90;;;;;;6124862;23;20742;-77
2022/11/29 05:08:56;;;;;;;0.50;0.10;;;8.50;99.90;;;;;;6125393;23;20406;-76
2022/11/29 05:11:35;;;;;;;0.60;0.10;;;8.50;99.90;;;;;;6125508;23;20452;-78
2022/11/29 05:14:10;;;;;;;0.93;0.40;;;8.40;99.90;;;;;;6130471;23;20460;-75
2022/11/29 05:16:47;;;;;;;0.50;0.10;;;8.50;99.90;;;;;;6154274;23;20405;-75
2022/11/29 05:19:35;;;;;;;0.50;0.10;;;8.50;99.90;;;;;;6154508;23;20857;-75
2022/11/29 05:22:20;;;;;;;0.70;0.50;;;8.50;99.90;;;;;;6153897;23;20409;-75
2022/11/29 05:24:56;;;;;;;0.50;0.10;;;8.50;99.90;;;;;;6153902;23;20440;-75
2022/11/29 05:27:37;;;;;;;0.50;0.10;;;8.50;99.90;;;;;;6154668;23;20420;-75
2022/11/29 05:30:12;;;;;;;0.50;0.10;;;8.50;99.90;;;;;;6154281;23;20412;-73
2022/11/29 05:32:54;;;;;;;0.50;0.10;;;8.50;99.90;;;;;;6154201;23;20745;-75
2022/11/29 05:35:52;;;;;;;0.50;0.10;;;8.50;99.90;;;;;;6154975;23;20425;-75
2022/11/29 05:38:44;;;;;;;0.50;0.10;;;8.50;99.90;;;;;;6153490;23;20409;-76
2022/11/29 05:41:26;;;;;;;0.63;0.50;;;8.50;99.90;;;;;;6154452;23;20420;-76
2022/11/29 05:44:07;;;;;;;0.87;0.73;;;8.50;99.90;;;;;;6154374;23;20424;-73
2022/11/29 05:46:48;;;;;;;0.50;0.10;;;8.50;99.90;;;;;;6155191;23;20405;-72
2022/11/29 05:49:25;;;;;;;0.50;0.10;;;8.50;99.90;;;;;;6155753;23;20477;-73
2022/11/29 05:52:03;;;;;;;0.50;0.10;;;8.50;99.90;;;;;;6154121;23;20409;-75
2022/11/29 05:54:35;;;;;;;0.50;0.10;;;8.50;99.90;;;;;;6154618;23;20421;-73
2022/11/29 05:57:14;;;;;;;0.50;0.10;;;8.50;99.90;;;;;;6154139;23;20909;-73
2022/11/29 05:59:43;;;;;;;0.50;0.10;;;8.50;99.90;;;;;;6154723;23;20503;-74
2022/11/29 06:02:27;;;;;;;0.50;0.10;;;8.50;99.90;;;;;;6153228;23;21054;-74
2022/11/29 06:05:06;;;;;;;0.50;0.10;;;8.50;99.90;;;;;;6153822;23;20444;-75
2022/11/29 06:07:44;;;;;;;0.50;0.10;;;8.60;99.90;;;;;;6154090;23;20434;-75
2022/11/29 06:10:16;;;;;;;0.50;0.10;;;8.60;99.90;;;;;;6157086;23;20786;-72
2022/11/29 06:12:53;;;;;;;0.60;0.53;;;8.60;99.90;;;;;;6156956;23;20749;-73
2022/11/29 06:15:42;;;;;;;0.50;0.10;;;8.50;99.90;;;;;;6157651;23;20432;-72
2022/11/29 06:18:24;;;;;;;0.50;0.10;;;8.50;99.90;;;;;;6157793;23;20408;-71
2022/11/29 06:21:07;;;;;;;65.77;62.53;;;8.60;99.90;;;;;;6157635;23;20455;-71
2022/11/29 06:23:53;;;;;;;0.50;0.10;;;8.60;99.90;;;;;;6157603;23;20405;-71
2022/11/29 06:26:44;;;;;;;0.50;0.10;;;8.60;99.90;;;;;;6158453;23;20483;-72
2022/11/29 06:29:25;;;;;;;0.80;0.80;;;8.60;99.90;;;;;;6101738;23;20436;-74
2022/11/29 06:32:01;;;;;;;0.50;0.10;;;8.60;99.90;;;;;;6157808;23;20381;-71
2022/11/29 06:34:35;;;;;;;0.50;0.10;;;8.60;99.90;;;;;;6156728;23;20435;-72
2022/11/29 06:37:13;;;;;;;0.50;0.10;;;8.60;99.90;;;;;;6157119;23;20502;-72
2022/11/29 06:39:41;;;;;;;0.50;0.10;;;8.60;99.90;;;;;;6157518;23;20404;-72
2022/11/29 06:42:09;;;;;;;0.50;0.10;;;8.60;99.90;;;;;;6157323;23;20909;-72
2022/11/29 06:44:37;;;;;;;0.50;0.10;;;8.60;99.90;;;;;;6156771;23;20436;-72
2022/11/29 06:47:07;;;;;;;0.50;0.10;;;8.60;99.90;;;;;;6156201;23;20913;-73
2022/11/29 06:49:43;;;;;;;0.50;0.10;;;8.60;99.90;;;;;;6156963;23;20404;-71
2022/11/29 06:52:23;;;;;;;0.50;0.10;;;8.60;99.90;;;;;;6156855;23;20731;-73
2022/11/29 06:55:03;;;;;;;0.50;0.10;;;8.60;99.90;;;;;;6155961;23;20420;-72
2022/11/29 06:57:42;;;;;;;0.90;0.87;;;8.60;99.90;;;;;;6156493;23;20491;-71
2022/11/29 07:00:17;;;;;;;0.50;0.10;;;8.60;99.90;;;;;;6157659;23;20408;-71
2022/11/29 07:02:59;;;;;;;0.50;0.10;;;8.60;99.90;;;;;;6156810;23;20864;-71
2022/11/29 07:05:29;;;;;;;0.50;0.10;;;8.60;99.90;;;;;;6156931;23;20440;-71
2022/11/29 07:08:02;;;;;;;0.50;0.10;;;8.60;99.90;;;;;;6157131;23;20439;-71
2022/11/29 07:10:33;;;;;;;0.70;0.57;;;8.60;99.90;;;;;;6157270;23;20405;-71
2022/11/29 07:13:01;;;;;;;0.60;0.30;;;8.60;99.90;;;;;;6156507;23;20455;-73
2022/11/29 07:15:30;;;;;;;0.50;0.10;;;8.60;99.90;;;;;;6156932;23;20436;-71
2022/11/29 07:18:17;;;;;;;0.50;0.10;;;8.60;99.90;;;;;;6156885;23;20467;-73
2022/11/29 07:20:59;;;;;;;1.53;0.67;;;8.50;99.90;;;;;;6155595;23;20463;-72
2022/11/29 07:23:35;;;;;;;0.50;0.10;;;8.50;99.90;;;;;;6154803;23;20412;-72
2022/11/29 07:26:18;;;;;;;0.50;0.10;;;8.50;99.90;;;;;;6154767;23;20428;-73
2022/11/29 07:28:59;;;;;;;0.50;0.10;;;8.50;99.90;;;;;;6155499;23;20513;-72
2022/11/29 07:31:38;;;;;;;0.50;0.20;;;8.50;99.90;;;;;;6155838;23;20920;-75
2022/11/29 07:34:16;;;;;;;0.60;0.33;;;8.50;99.90;;;;;;6156880;23;20443;-72
2022/11/29 07:36:54;;;;;;;0.50;0.10;;;8.50;99.90;;;;;;6155974;23;20997;-75
2022/11/29 07:39:36;;;;;;;0.50;0.10;;;8.60;99.90;;;;;;6156041;23;20397;-75
2022/11/29 07:42:13;;;;;;;0.93;0.77;;;8.60;99.90;;;;;;6156831;23;20460;-75
2022/11/29 07:44:50;;;;;;;0.50;0.10;;;8.60;99.90;;;;;;6158455;23;20504;-75
2022/11/29 07:47:18;;;;;;;0.50;0.10;;;8.60;99.90;;;;;;6159578;23;20464;-77
2022/11/29 07:49:46;;;;;;;0.50;0.10;;;8.70;99.90;;;;;;6158709;23;20444;-76
2022/11/29 07:52:16;;;;;;;0.50;0.30;;;8.70;99.90;;;;;;6156689;23;20778;-76
2022/11/29 07:54:45;;;;;;;0.50;0.10;;;8.60;99.90;;;;;;6157042;23;20425;-73
2022/11/29 07:57:13;;;;;;;1.37;1.13;;;8.60;99.90;;;;;;6155425;23;20401;-73
2022/11/29 07:59:41;;;;;;;2.93;1.90;;;8.70;99.90;;;;;;6155702;23;20559;-74
2022/11/29 08:02:10;;;;;;;0.50;0.10;;;8.70;99.90;;;;;;6155638;23;20508;-74
2022/11/29 08:04:42;;;;;;;1.13;1.03;;;8.70;99.90;;;;;;6155323;23;20796;-72
2022/11/29 08:07:10;;;;;;;0.80;0.80;;;8.70;99.90;;;;;;6155727;23;20447;-72
2022/11/29 08:09:38;;;;;;;0.80;0.53;;;8.70;99.90;;;;;;6156123;23;20417;-74
2022/11/29 08:12:07;;;;;;;0.50;0.10;;;8.70;99.90;;;;;;6158147;23;20838;-74
2022/11/29 08:14:35;;;;;;;3.00;2.73;;;8.70;99.90;;;;;;6156448;23;20930;-73
2022/11/29 08:17:03;;;;;;;0.50;0.10;;;8.70;99.90;;;;;;6155673;23;20401;-73
2022/11/29 08:19:31;;;;;;;0.50;0.10;;;8.70;99.90;;;;;;6155159;23;20909;-74
2022/11/29 08:21:59;;;;;;;0.50;0.10;;;;;;;;;;6155658;23;20448;-73
2022/11/29 08:24:27;;;;;;;0.50;0.10;;;8.80;99.90;;;;;;6155578;23;20421;-74
2022/11/29 08:26:55;;;;;;;0.60;0.60;;;8.80;99.90;;;;;;6156563;23;21018;-73
2022/11/29 08:29:24;;;;;;;14.57;13.87;;;8.80;99.90;;;;;;6159075;23;20764;-74
2022/11/29 08:31:53;;;;;;;0.50;0.10;;;8.80;99.90;;;;;;6155367;23;20405;-73
2022/11/29 08:34:22;;;;;;;0.50;0.10;;;8.80;99.90;;;;;;6155618;23;20425;-76
2022/11/29 08:36:50;;;;;;;0.50;0.10;;;8.80;99.90;;;;;;6156210;23;20436;-76
2022/11/29 08:39:18;;;;;;;0.83;0.83;;;8.80;99.90;;;;;;6156135;23;20479;-76
2022/11/29 08:41:46;;;;;;;0.50;0.10;;;8.80;99.90;;;;;;6157019;23;20421;-77
2022/11/29 08:44:14;;;;;;;0.50;0.10;;;8.80;99.90;;;;;;6158169;23;20429;-77
2022/11/29 08:49:28;;;;;;;0.50;0.10;;;8.90;99.90;;;;;;6155008;23;20409;-76
2022/11/29 08:53:40;;;;;;;0.50;0.30;;;8.90;99.90;;;;;;6157608;23;20425;-76
2022/11/29 08:54:43;;;;;;;0.50;0.10;;;8.90;99.90;;;;;;6155801;23;20504;-75
2022/11/29 08:57:11;;;;;;;0.77;0.77;;;8.90;99.90;;;;;;6155524;23;20460;-75
2022/11/29 08:59:59;;;;;;;0.50;0.10;;;8.90;99.90;;;;;;6155505;23;20908;-75
2022/11/29 09:02:28;;;;;;;0.50;0.10;;;8.90;99.90;;;;;;6155188;23;20703;-74
2022/11/29 09:04:56;;;;;;;0.50;0.10;;;8.90;99.90;;;;;;6156882;23;20432;-75
2022/11/29 09:07:24;;;;;;;0.60;0.40;;;8.90;99.90;;;;;;6155844;23;20980;-76
2022/11/29 09:09:52;;;;;;;0.50;0.13;;;8.90;99.90;;;;;;6155726;23;20405;-75
2022/11/29 09:12:20;;;;;;;0.60;0.10;;;9.00;99.90;;;;;;6155438;23;20968;-75
2022/11/29 09:14:48;;;;;;;0.50;0.10;;;9.00;99.90;;;;;;6152038;23;20444;-77
2022/11/29 09:17:16;;;;;;;0.50;0.10;;;9.00;99.90;;;;;;6155286;23;20401;-76
2022/11/29 09:19:46;;;;;;;0.50;0.10;;;9.00;99.90;;;;;;6155598;23;20451;-74
2022/11/29 09:22:13;;;;;;;0.60;0.40;;;9.00;99.90;;;;;;6154852;23;20467;-74
2022/11/29 09:24:41;;;;;;;0.50;0.10;;;9.10;99.90;;;;;;6156353;23;20969;-77
2022/11/29 09:27:09;;;;;;;0.50;0.10;;;9.10;99.90;;;;;;6156879;23;20425;-74
2022/11/29 09:29:37;;;;;;;0.50;0.20;;;9.10;99.90;;;;;;6159552;23;20409;-75
2022/11/29 09:32:06;;;;;;;0.50;0.10;;;9.10;99.90;;;;;;6157976;23;20816;-76
2022/11/29 09:34:34;;;;;;;1.37;1.27;;;9.10;99.90;;;;;;6156460;23;20508;-76
2022/11/29 09:37:05;;;;;;;0.50;0.10;;;9.10;99.90;;;;;;6155860;23;20937;-77
2022/11/29 09:39:32;;;;;;;3.23;1.03;;;9.10;99.90;;;;;;6157580;23;20409;-74
2022/11/29 09:42:11;;;;;;;0.50;0.10;;;9.10;99.90;;;;;;6155733;23;20454;-74
2022/11/29 09:44:49;;;;;;;0.50;0.10;;;;;;;;;;6155992;23;20425;-74
2022/11/29 09:47:30;;;;;;;1.13;0.20;;;9.10;99.90;;;;;;6157999;23;20425;-77
2022/11/29 09:50:16;;;;;;;0.50;0.10;;;9.10;99.90;;;;;;6155130;23;20405;-74
2022/11/29 09:52:51;;;;;;;0.50;0.10;;;9.10;99.90;;;;;;6154337;23;20388;-74
2022/11/29 09:55:42;;;;;;;1.60;1.50;;;9.10;99.90;;;;;;6154961;23;20913;-73
2022/11/29 09:58:14;;;;;;;0.50;0.10;;;9.20;99.90;;;;;;6155430;23;20433;-75
2022/11/29 10:00:48;;;;;;;0.50;0.20;;;9.20;99.90;;;;;;6156664;23;20409;-74
2022/11/29 10:03:24;;;;;;;0.50;0.10;;;9.20;99.90;;;;;;6157248;23;20400;-74
2022/11/29 10:05:56;;;;;;;0.50;0.10;;;9.20;99.90;;;;;;6156437;23;20409;-77
2022/11/29 10:08:31;;;;;;;0.50;0.10;;;9.20;99.90;;;;;;6160552;23;20425;-75
2022/11/29 10:11:11;;;;;;;1.87;1.50;;;9.10;99.90;;;;;;6159884;23;20410;-77
2022/11/29 10:13:44;;;;;;;0.50;0.10;;;9.10;99.90;;;;;;6157645;23;20409;-76
2022/11/29 10:16:18;;;;;;;0.50;0.10;;;9.10;99.90;;;;;;6157787;23;20413;-77
2022/11/29 10:18:51;;;;;;;0.50;0.10;;;9.20;99.90;;;;;;6157853;23;20913;-76
2022/11/29 10:21:22;;;;;;;0.50;0.10;;;9.20;99.90;;;;;;6160773;23;20424;-77
2022/11/29 10:23:55;;;;;;;0.50;0.10;;;9.30;99.90;;;;;;6160527;23;20421;-74
2022/11/29 10:26:23;;;;;;;0.50;0.10;;;9.30;99.90;;;;;;6160688;23;20405;-76
2022/11/29 10:28:56;;;;;;;0.50;0.10;;;9.30;99.90;;;;;;6160953;23;20389;-77
2022/11/29 10:31:28;;;;;;;0.50;0.10;;;9.30;99.90;;;;;;6161607;23;20500;-77
2022/11/29 10:33:58;;;;;;;0.50;0.10;;;9.40;99.90;;;;;;6160031;23;20429;-77
2022/11/29 10:36:31;;;;;;;0.50;0.10;;;9.30;99.90;;;;;;6159690;23;20416;-77
2022/11/29 10:39:04;;;;;;;0.50;0.10;;;9.40;99.90;;;;;;6161116;23;20412;-76
2022/11/29 10:41:39;;;;;;;0.50;0.10;;;9.40;99.90;;;;;;6160860;23;20455;-77
2022/11/29 10:44:12;;;;;;;0.50;0.10;;;9.40;99.90;;;;;;6162716;23;20429;-76
2022/11/29 10:46:41;;;;;;;0.97;0.97;;;9.40;99.90;;;;;;6161637;23;20428;-77
2022/11/29 10:49:14;;;;;;;0.50;0.10;;;9.40;99.90;;;;;;6162621;23;20747;-75
2022/11/29 10:51:42;;;;;;;0.50;0.10;;;9.40;99.90;;;;;;6159523;23;20417;-77
2022/11/29 10:54:36;;;;;;;0.50;0.20;;;9.50;99.90;;;;;;6157405;23;20421;-77
2022/11/29 10:57:12;;;;;;;3.10;2.97;;;9.50;99.90;;;;;;6157345;23;20742;-77
2022/11/29 10:59:40;;;;;;;0.50;0.20;;;9.50;99.90;;;;;;6158846;23;20443;-75
2022/11/29 11:02:18;;;;;;;0.50;0.10;;;9.50;99.90;;;;;;6157347;23;20427;-76
2022/11/29 11:04:48;;;;;;;0.50;0.10;;;9.50;99.90;;;;;;6156438;23;20947;-76
2022/11/29 11:07:25;;;;;;;0.50;0.10;;;9.50;99.90;;;;;;6157246;23;20502;-76
2022/11/29 11:09:57;;;;;;;0.50;0.10;;;9.50;99.90;;;;;;6159653;23;20483;-77
2022/11/29 11:12:29;;;;;;;0.63;0.60;;;9.50;99.90;;;;;;6165281;23;20437;-77
2022/11/29 11:15:27;;;;;;;0.50;0.10;;;9.50;99.90;;;;;;6163627;23;20439;-77
2022/11/29 11:17:58;;;;;;;0.50;0.10;;;9.50;99.90;;;;;;6166431;23;20428;-77
2022/11/29 11:20:28;;;;;;;0.50;0.10;;;9.50;99.90;;;;;;6159950;23;20420;-75
2022/11/29 11:22:59;;;;;;;0.60;0.40;;;9.50;99.90;;;;;;6161271;23;20417;-77
2022/11/29 11:25:30;;;;;;;0.50;0.10;;;9.50;99.90;;;;;;6160825;23;20425;-76
2022/11/29 11:28:14;;;;;;;0.50;0.10;;;9.50;99.90;;;;;;6160962;23;20440;-76
2022/11/29 11:30:50;;;;;;;0.50;0.10;;;9.50;99.90;;;;;;6161143;23;20477;-77
2022/11/29 11:33:21;;;;;;;0.50;0.10;;;9.50;99.90;;;;;;6160351;23;20415;-76
2022/11/29 11:36:04;;;;;;;0.50;0.20;;;9.50;99.90;;;;;;6162871;23;20377;-77
2022/11/29 11:38:33;;;;;;;0.50;0.10;;;9.60;99.90;;;;;;6162632;23;20623;-79
2022/11/29 11:41:05;;;;;;;0.50;0.10;;;9.50;99.90;;;;;;6159457;23;20471;-75
2022/11/29 11:43:34;;;;;;;0.50;0.10;;;9.60;99.90;;;;;;6161548;23;20417;-76
2022/11/29 11:46:02;;;;;;;0.50;0.10;;;9.60;99.90;;;;;;6163478;23;20436;-77
2022/11/29 11:48:30;;;;;;;0.50;0.10;;;9.60;99.90;;;;;;6161273;23;20953;-76
2022/11/29 11:51:00;;;;;;;0.50;0.10;;;9.60;99.90;;;;;;6160989;23;20416;-78
2022/11/29 11:53:34;;;;;;;0.50;0.20;;;9.60;99.90;;;;;;6160879;23;20925;-75
2022/11/29 11:56:06;;;;;;;0.50;0.10;;;9.60;99.90;;;;;;6162680;23;20389;-77
2022/11/29 11:58:38;;;;;;;1.73;1.67;;;9.70;99.90;;;;;;6160424;23;20471;-75
2022/11/29 12:01:16;;;;;;;0.50;0.10;;;9.70;99.90;;;;;;6160798;23;20492;-76
2022/11/29 12:03:52;;;;;;;0.50;0.10;;;9.70;99.90;;;;;;6159745;23;20424;-77
2022/11/29 12:06:37;;;;;;;0.93;0.10;;;9.50;99.90;;;;;;6162703;23;20412;-77
2022/11/29 12:09:12;;;;;;;2.50;2.27;;;9.60;99.90;;;;;;6162643;23;20730;-77
2022/11/29 12:11:49;;;;;;;0.50;0.10;;;9.60;99.90;;;;;;6163245;23;20405;-76
2022/11/29 12:14:28;;;;;;;0.60;0.10;;;9.60;99.90;;;;;;6160610;23;20466;-76
2022/11/29 12:17:05;;;;;;;0.60;0.10;;;9.60;99.90;;;;;;6157417;23;20446;-75
2022/11/29 12:19:40;;;;;;;1.80;1.23;;;9.60;99.90;;;;;;6166173;23;20405;-76
2022/11/29 12:22:16;;;;;;;0.50;0.10;;;9.60;99.90;;;;;;6165469;23;20391;-76
2022/11/29 12:24:50;;;;;;;0.60;0.30;;;9.60;99.90;;;;;;6167614;23;20511;-77
2022/11/29 12:27:20;;;;;;;7.37;6.80;;;;;;;;;;6167975;23;20771;-76
2022/11/29 12:29:48;;;;;;;0.50;0.10;;;9.60;99.90;;;;;;6169907;23;20430;-76
2022/11/29 12:32:30;;;;;;;0.60;0.10;;;9.60;99.90;;;;;;6165494;23;20416;-78
2022/11/29 12:35:29;;;;;;;0.50;0.10;;;9.70;99.90;;;;;;6166678;23;20429;-79
2022/11/29 12:38:05;;;;;;;0.50;0.10;;;9.70;99.90;;;;;;6164220;23;20738;-77
2022/11/29 12:40:38;;;;;;;0.50;0.20;;;9.70;99.90;;;;;;6166734;23;20405;-73
2022/11/29 12:43:18;;;;;;;3.60;3.37;;;9.70;99.90;;;;;;6166362;23;20405;-78
2022/11/29 12:45:52;;;;;;;0.50;0.10;;;9.70;99.90;;;;;;6165839;23;20437;-76
2022/11/29 12:48:31;;;;;;;0.60;0.20;;;9.70;99.90;;;;;;6166662;23;20474;-78
2022/11/29 12:51:07;;;;;;;0.57;0.27;;;9.70;99.90;;;;;;6169061;23;20477;-75
2022/11/29 12:53:50;;;;;;;0.50;0.10;;;9.70;99.90;;;;;;6167460;23;20464;-75
2022/11/29 12:56:24;;;;;;;0.60;0.30;;;9.70;99.90;;;;;;6167125;23;20405;-76
2022/11/29 12:59:05;;;;;;;0.50;0.10;;;9.70;99.90;;;;;;6169460;23;20449;-77
2022/11/29 13:01:51;;;;;;;0.50;0.10;;;9.70;99.90;;;;;;6168828;23;20421;-78
2022/11/29 13:04:28;;;;;;;0.50;0.10;;;9.70;99.90;;;;;;6168421;23;20430;-76
2022/11/29 13:07:05;;;;;;;0.50;0.10;;;9.70;99.90;;;;;;6167491;23;20815;-73
2022/11/29 13:10:11;;;;;;;0.87;0.40;;;9.80;99.90;;;;;;6170617;23;20436;-76
2022/11/29 13:12:51;;;;;;;0.90;0.70;;;9.80;99.90;;;;;;6170417;23;20386;-77
2022/11/29 13:15:23;;;;;;;0.50;0.20;;;9.70;99.90;;;;;;6169364;23;20452;-77
2022/11/29 13:17:57;;;;;;;0.87;0.87;;;9.70;99.90;;;;;;6165987;23;20828;-76
2022/11/29 13:20:36;;;;;;;1.90;1.80;;;9.70;99.90;;;;;;6158626;23;20385;-78
2022/11/29 13:23:13;;;;;;;0.50;0.10;;;9.80;99.90;;;;;;6157924;23;20471;-77
2022/11/29 13:25:45;;;;;;;0.50;0.10;;;9.80;99.90;;;;;;6155554;23;20475;-73
2022/11/29 13:28:22;;;;;;;0.50;0.30;;;9.80;99.90;;;;;;6154102;23;20777;-73
2022/11/29 13:30:52;;;;;;;0.50;0.10;;;9.80;99.90;;;;;;6154755;23;20389;-75
2022/11/29 13:33:26;;;;;;;0.50;0.10;;;9.80;99.90;;;;;;6154303;23;20475;-73
2022/11/29 13:36:01;;;;;;;7.70;6.63;;;9.80;99.90;;;;;;6154669;23;20401;-73
2022/11/29 13:38:34;;;;;;;2.43;2.33;;;9.80;99.90;;;;;;6155300;23;20396;-74
2022/11/29 13:41:11;;;;;;;1.60;1.50;;;9.80;99.90;;;;;;6153992;23;20412;-74
2022/11/29 13:43:42;;;;;;;2.20;2.10;;;9.80;99.90;;;;;;6155080;23;20710;-72
2022/11/29 13:46:22;;;;;;;0.50;0.10;;;9.80;99.90;;;;;;6155424;23;20951;-74
2022/11/29 13:48:52;;;;;;;0.50;0.10;;;9.80;99.90;;;;;;6155242;23;20775;-75
2022/11/29 13:51:30;;;;;;;0.50;0.10;;;9.80;99.90;;;;;;6155156;23;20409;-74
2022/11/29 13:54:01;;;;;;;0.50;0.10;;;9.70;99.90;;;;;;6153977;23;20420;-74
2022/11/29 13:56:35;;;;;;;0.50;0.10;;;9.70;99.90;;;;;;6153771;23;20746;-74
2022/11/29 13:59:08;;;;;;;0.50;0.10;;;9.70;99.90;;;;;;6154359;23;20381;-74
2022/11/29 14:01:52;;;;;;;0.50;0.10;;;9.70;99.90;;;;;;6153866;23;20894;-74
2022/11/29 14:04:30;;;;;;;0.50;0.10;;;9.70;99.90;;;;;;6153793;23;20787;-75
2022/11/29 14:07:11;;;;;;;0.50;0.10;;;9.70;99.90;;;;;;6154199;23;20714;-74
2022/11/29 14:09:47;;;;;;;0.50;0.10;;;9.80;99.90;;;;;;6154516;23;20769;-76
2022/11/29 14:12:34;;;;;;;0.50;0.10;;;9.70;99.90;;;;;;6154500;23;20389;-77
2022/11/29 14:15:19;;;;;;;0.50;0.10;;;9.70;99.90;;;;;;6154464;23;20443;-74
2022/11/29 14:17:52;;;;;;;0.50;0.10;;;9.70;99.90;;;;;;6151889;23;20483;-75
2022/11/29 14:20:45;;;;;;;0.50;0.10;;;9.70;99.90;;;;;;6155265;23;20464;-75
2022/11/29 14:23:15;;;;;;;0.60;0.43;;;9.80;99.90;;;;;;6126598;23;20420;-74
2022/11/29 14:26:21;;;;;;;0.50;0.10;;;9.80;99.90;;;;;;6156054;23;20425;-74
2022/11/29 14:28:56;;;;;;;0.50;0.10;;;9.80;99.90;;;;;;6154528;23;20432;-72
2022/11/29 14:31:47;;;;;;;0.50;0.10;;;9.80;99.90;;;;;;6154361;23;20894;-78
2022/11/29 14:34:37;;;;;;;0.50;0.10;;;9.80;99.90;;;;;;6154778;23;20469;-75
2022/11/29 14:37:18;;;;;;;0.50;0.20;;;9.80;99.90;;;;;;6155929;23;20511;-77
2022/11/29 14:39:49;;;;;;;0.60;0.30;;;9.80;99.90;;;;;;6156248;23;20412;-74
2022/11/29 14:42:20;;;;;;;0.50;0.10;;;9.80;99.90;;;;;;6154130;23;20923;-73
2022/11/29 14:44:51;;;;;;;0.90;0.37;;;9.80;99.90;;;;;;6155660;23;20420;-74
2022/11/29 14:47:24;;;;;;;0.50;0.27;;;9.80;99.90;;;;;;6155805;23;20409;-72
2022/11/29 14:49:56;;;;;;;0.50;0.10;;;9.70;99.90;;;;;;6156191;23;20810;-73
2022/11/29 14:52:30;;;;;;;0.87;0.40;;;9.70;99.90;;;;;;6155560;23;20451;-73
2022/11/29 14:55:02;;;;;;;0.50;0.30;;;9.70;99.90;;;;;;6155950;23;20427;-75
2022/11/29 14:57:53;;;;;;;0.50;0.10;;;9.70;99.90;;;;;;6156194;23;20924;-74
2022/11/29 15:00:23;;;;;;;0.50;0.10;;;9.70;99.90;;;;;;6156005;23;20480;-74
2022/11/29 15:02:55;;;;;;;0.50;0.10;;;9.70;99.90;;;;;;6154830;23;20464;-75
2022/11/29 15:05:30;;;;;;;0.50;0.10;;;8.70;99.90;;;;;;6156021;23;20429;-75
2022/11/29 15:08:07;;;;;;;0.50;0.10;;;9.70;99.90;;;;;;6156454;23;20397;-74
2022/11/29 15:10:41;;;;;;;0.50;0.10;;;9.70;99.90;;;;;;6155908;23;20436;-77
2022/11/29 15:13:12;;;;;;;0.50;0.10;;;9.70;99.90;;;;;;6155722;23;20385;-76
2022/11/29 15:16:14;;;;;;;4.93;3.40;;;9.70;99.90;;;;;;6156351;23;20432;-74
2022/11/29 15:19:06;;;;;;;0.60;0.30;;;9.70;99.90;;;;;;6155667;23;20405;-74
2022/11/29 15:21:42;;;;;;;2.43;2.33;;;9.70;99.90;;;;;;6156694;23;20905;-75
2022/11/29 15:24:12;;;;;;;0.50;0.20;;;9.60;99.90;;;;;;6155546;23;20479;-74
2022/11/29 15:26:55;;;;;;;2.27;2.13;;;9.60;99.90;;;;;;6156615;23;20400;-74
2022/11/29 15:29:23;;;;;;;0.50;0.10;;;9.60;99.90;;;;;;6156414;23;20445;-74
2022/11/29 15:31:54;;;;;;;3.30;3.10;;;9.60;99.90;;;;;;6155020;23;20401;-75
2022/11/29 15:34:30;;;;;;;0.60;0.37;;;9.50;99.90;;;;;;6155680;23;20422;-73
2022/11/29 15:37:00;;;;;;;2.30;2.10;;;9.50;99.90;;;;;;6154845;23;20412;-78
2022/11/29 15:39:31;;;;;;;0.50;0.10;;;9.40;99.90;;;;;;6153297;23;20736;-74
2022/11/29 15:42:01;;;;;;;0.50;0.10;;;9.40;99.90;;;;;;6154825;23;20460;-74
2022/11/29 15:44:31;;;;;;;0.50;0.10;;;9.40;99.90;;;;;;6153693;23;20723;-75
2022/11/29 15:47:15;;;;;;;1.17;1.13;;;9.40;99.90;;;;;;6157196;23;20405;-75
2022/11/29 15:49:43;;;;;;;0.70;0.63;;;9.40;99.90;;;;;;6156829;23;20450;-76
2022/11/29 15:52:19;;;;;;;0.50;0.20;;;9.40;99.90;;;;;;6156333;23;20405;-76
2022/11/29 15:54:51;;;;;;;0.50;0.10;;;9.40;99.90;;;;;;6155301;23;20445;-74
2022/11/29 15:57:24;;;;;;;27.90;26.40;;;9.40;99.90;;;;;;6153547;23;20459;-76
2022/11/29 15:59:54;;;;;;;7.90;7.50;;;9.40;99.90;;;;;;6153334;23;20456;-74
2022/11/29 16:02:26;;;;;;;0.50;0.20;;;9.30;99.90;;;;;;6155235;23;20439;-74
2022/11/29 16:04:57;;;;;;;0.50;0.10;;;9.30;99.90;;;;;;6155138;23;20432;-74
2022/11/29 16:07:30;;;;;;;0.50;0.20;;;9.30;99.90;;;;;;6155996;23;20390;-76
2022/11/29 16:10:04;;;;;;;0.50;0.10;;;9.40;99.90;;;;;;6153083;23;20543;-76
2022/11/29 16:12:32;;;;;;;0.50;0.10;;;;;;;;;;6155293;23;20389;-74
2022/11/29 16:15:01;;;;;;;0.50;0.10;;;9.40;99.90;;;;;;6154970;23;20433;-77
2022/11/29 16:17:31;;;;;;;0.50;0.10;;;9.40;99.90;;;;;;6153505;23;21077;-75
2022/11/29 16:20:23;;;;;;;0.50;0.20;;;9.40;99.90;;;;;;6152017;23;20409;-75
2022/11/29 16:23:13;;;;;;;0.50;0.10;;;;;;;;;;6154433;23;20401;-74
2022/11/29 16:25:55;;;;;;;0.50;0.10;;;9.40;99.90;;;;;;6155329;23;20866;-72
2022/11/29 16:28:24;;;;;;;0.50;0.10;;;;;;;;;;6155023;23;20416;-73
2022/11/29 16:30:52;;;;;;;0.50;0.10;;;9.30;99.90;;;;;;6155501;23;20472;-75
2022/11/29 16:33:24;;;;;;;0.50;0.10;;;9.40;99.90;;;;;;6155180;23;20409;-75
2022/11/29 16:36:03;;;;;;;0.50;0.10;;;9.40;99.90;;;;;;6157393;23;20405;-76
2022/11/29 16:38:33;;;;;;;0.50;0.10;;;9.40;99.90;;;;;;6155156;23;20389;-75
2022/11/29 16:41:04;;;;;;;0.60;0.40;;;9.40;99.90;;;;;;6154787;23;20408;-75
2022/11/29 16:43:54;;;;;;;0.50;0.10;;;9.40;99.90;;;;;;6154912;23;20477;-75
2022/11/29 16:46:31;;;;;;;0.50;0.37;;;9.40;99.90;;;;;;6154910;23;21130;-76
2022/11/29 16:49:01;;;;;;;0.50;0.10;;;9.40;99.90;;;;;;6154925;23;20492;-74
2022/11/29 16:51:38;;;;;;;0.50;0.10;;;9.40;99.90;;;;;;6154647;23;20429;-73
2022/11/29 16:54:22;;;;;;;0.50;0.10;;;9.40;99.90;;;;;;6154553;23;20807;-76
2022/11/29 16:56:52;;;;;;;0.50;0.10;;;9.40;99.90;;;;;;6155246;23;20574;-74
2022/11/29 16:59:22;;;;;;;0.60;0.50;;;9.30;99.90;;;;;;6160059;23;20459;-74
2022/11/29 17:01:55;;;;;;;3.43;1.90;;;9.40;99.90;;;;;;6154369;23;20436;-75
2022/11/29 17:04:23;;;;;;;0.50;0.10;;;9.40;99.90;;;;;;6152307;23;20436;-74
2022/11/29 17:06:52;;;;;;;0.50;0.10;;;;;;;;;;6154495;23;20488;-76
2022/11/29 17:09:24;;;;;;;0.50;0.10;;;9.30;99.90;;;;;;6154927;23;20411;-74
2022/11/29 17:11:53;;;;;;;0.50;0.10;;;9.30;99.90;;;;;;6154036;23;20463;-73
2022/11/29 17:14:21;;;;;;;0.50;0.10;;;9.40;99.90;;;;;;6153703;23;20496;-75
2022/11/29 17:16:49;;;;;;;0.50;0.10;;;9.40;99.90;;;;;;6157984;23;20436;-74
2022/11/29 17:19:17;;;;;;;0.50;0.10;;;9.40;99.90;;;;;;6158463;23;20412;-74
2022/11/29 17:21:48;;;;;;;0.50;0.20;;;9.40;99.90;;;;;;6155371;23;20409;-74
2022/11/29 17:24:18;;;;;;;0.50;0.10;;;9.40;99.90;;;;;;6154292;23;20488;-73
2022/11/29 17:26:47;;;;;;;0.50;0.10;;;9.40;99.90;;;;;;6155622;23;20762;-74
2022/11/29 17:29:16;;;;;;;0.50;0.27;;;9.40;99.90;;;;;;6154944;23;20488;-76
2022/11/29 17:31:44;;;;;;;0.50;0.10;;;9.40;99.90;;;;;;6154403;23;20432;-74
2022/11/29 17:34:13;;;;;;;1.47;0.73;;;9.30;99.90;;;;;;6154234;23;20436;-74
2022/11/29 17:36:41;;;;;;;1.40;1.30;;;9.30;99.90;;;;;;6154121;23;20504;-74
2022/11/29 17:39:09;;;;;;;0.50;0.10;;;9.30;99.90;;;;;;6154322;23;20405;-75
2022/11/29 17:41:37;;;;;;;0.50;0.10;;;9.30;99.90;;;;;;6153230;23;20406;-74